Rehoboth, Delaware
Current Conditions -  °F | °C
As of 6:54 AM on Saturday 25 Oct 2014 (Local Time) from KGED Reporting Station
Clear Clear  
Wind Chill: 45°   Ceiling: Unl
Heat Index: 45°   Visibility: 10mi
Dew Point: 40°   Wind: 0mph
Humidity: 82%   Direction: NA
Pressure: 29.94"   Gusts: NA
Location:  38.7115°N, 75.1086°W
Report Text: KGED 251054Z AUTO 00000KT 10SM CLR 07/04 A2994 RMK AO2 SLP138 T00720044 $
Loading
Personal Weather Stations






























Interactive Weather Map
Tropical Storm Tracking
New forecast layout! Learn more

10-Day Weather Forecast

Advertisements
Track Severe Weather on mobile